createdAt,value
2022-12-26T00:01:52.487Z,2.13
2022-12-26T00:04:51.180Z,2.35
2022-12-26T00:07:11.056Z,2.58
2022-12-26T00:09:39.147Z,2.40
2022-12-26T00:12:07.589Z,2.00
2022-12-26T00:14:35.609Z,2.03
2022-12-26T00:17:03.628Z,1.63
2022-12-26T00:19:32.953Z,2.05
2022-12-26T00:22:02.271Z,1.60
2022-12-26T00:24:30.274Z,1.85
2022-12-26T00:26:58.269Z,1.98
2022-12-26T00:29:26.266Z,2.50
2022-12-26T00:31:54.355Z,2.50
2022-12-26T00:34:22.306Z,2.42
2022-12-26T00:36:51.730Z,1.85
2022-12-26T00:39:19.772Z,2.22
2022-12-26T00:41:47.764Z,2.15
2022-12-26T00:44:15.680Z,1.92
2022-12-26T00:46:43.822Z,2.20
2022-12-26T00:49:11.737Z,2.17
2022-12-26T00:51:39.695Z,2.13
2022-12-26T00:54:09.070Z,2.22
2022-12-26T00:56:37.164Z,2.35
2022-12-26T00:59:05.330Z,2.58
2022-12-26T01:01:34.097Z,1.75
2022-12-26T01:04:02.251Z,2.15
2022-12-26T01:06:30.254Z,1.85
2022-12-26T01:08:59.647Z,1.73
2022-12-26T01:11:44.218Z,2.20
2022-12-26T01:14:19.165Z,1.90
2022-12-26T01:16:48.156Z,2.58
2022-12-26T01:19:16.150Z,2.30
2022-12-26T01:21:44.296Z,2.33
2022-12-26T01:24:13.968Z,1.70
2022-12-26T01:26:43.581Z,2.30
2022-12-26T01:29:14.828Z,2.30
2022-12-26T01:31:42.944Z,1.83
2022-12-26T01:34:11.729Z,2.47
2022-12-26T01:36:39.749Z,1.98
2022-12-26T01:39:08.847Z,2.28
2022-12-26T01:41:37.602Z,2.08
2022-12-26T01:44:28.166Z,2.50
2022-12-26T01:46:56.239Z,2.03
2022-12-26T01:49:32.007Z,2.13
2022-12-26T01:52:07.593Z,2.00
2022-12-26T01:57:27.639Z,2.03
2022-12-26T01:59:58.496Z,2.53
2022-12-26T02:02:28.513Z,2.78
2022-12-26T02:05:16.645Z,2.95
2022-12-26T02:07:47.256Z,3.17
2022-12-26T02:10:22.404Z,3.35
2022-12-26T02:12:51.730Z,3.60
2022-12-26T02:15:21.322Z,3.65
2022-12-26T02:17:49.430Z,4.72
2022-12-26T02:20:22.110Z,5.63
2022-12-26T02:23:24.429Z,5.95
2022-12-26T02:26:25.231Z,5.20
2022-12-26T02:29:19.013Z,5.88
2022-12-26T02:31:57.600Z,6.20
2022-12-26T02:34:35.272Z,5.63
2022-12-26T02:37:22.027Z,5.78
2022-12-26T02:40:04.625Z,5.43
2022-12-26T02:42:45.836Z,5.15
2022-12-26T02:45:40.476Z,4.82
2022-12-26T02:48:16.569Z,4.70
2022-12-26T02:51:27.384Z,4.43
2022-12-26T02:54:20.909Z,4.78
2022-12-26T03:00:23.473Z,3.15
2022-12-26T03:03:13.655Z,3.00
2022-12-26T03:06:04.153Z,2.47
2022-12-26T03:08:54.113Z,2.30
2022-12-26T03:11:47.731Z,2.47
2022-12-26T03:14:20.366Z,2.47
2022-12-26T03:17:11.228Z,2.10
2022-12-26T03:19:58.302Z,2.13
2022-12-26T03:22:32.620Z,2.10
2022-12-26T03:25:20.183Z,2.13
2022-12-26T03:27:48.794Z,2.25
2022-12-26T03:30:34.359Z,2.25
2022-12-26T03:33:03.085Z,2.50
2022-12-26T03:35:41.151Z,3.42
2022-12-26T03:38:37.663Z,3.90
2022-12-26T03:41:33.021Z,3.60
2022-12-26T03:44:38.644Z,3.83
2022-12-26T03:47:39.297Z,4.75
2022-12-26T03:50:33.339Z,6.18
2022-12-26T03:53:28.016Z,5.53
2022-12-26T03:56:22.566Z,4.95
2022-12-26T03:59:15.206Z,6.53
2022-12-26T04:02:03.954Z,6.13
2022-12-26T04:04:53.128Z,7.00
2022-12-26T04:07:56.383Z,4.63
2022-12-26T04:10:47.312Z,4.03
2022-12-26T04:13:41.545Z,2.75
2022-12-26T04:16:34.005Z,2.40
2022-12-26T04:19:26.412Z,2.00
2022-12-26T04:22:18.633Z,2.10
2022-12-26T04:25:15.875Z,2.28
2022-12-26T04:28:02.535Z,2.25
2022-12-26T04:30:53.706Z,1.90
2022-12-26T04:33:46.928Z,1.90
2022-12-26T04:36:40.126Z,2.60
2022-12-26T04:39:29.141Z,2.25
2022-12-26T04:42:28.480Z,1.98
2022-12-26T04:45:00.257Z,2.10
2022-12-26T04:47:34.629Z,1.92
2022-12-26T04:50:15.725Z,2.05
2022-12-26T04:53:01.815Z,1.45
2022-12-26T04:55:32.045Z,1.80
2022-12-26T04:58:01.946Z,1.90
2022-12-26T05:00:30.857Z,1.83
2022-12-26T05:03:29.309Z,1.83
2022-12-26T05:06:14.815Z,2.25
2022-12-26T05:09:01.640Z,2.38
2022-12-26T05:11:30.892Z,2.30
2022-12-26T05:14:00.023Z,1.30
2022-12-26T05:16:46.807Z,1.55
2022-12-26T05:19:35.975Z,2.03
2022-12-26T05:22:23.461Z,1.80
2022-12-26T05:25:21.680Z,2.05
2022-12-26T05:28:07.205Z,2.00
2022-12-26T05:30:35.198Z,2.00
2022-12-26T05:33:20.846Z,1.67
2022-12-26T05:35:50.256Z,1.70
2022-12-26T05:38:18.247Z,2.33
2022-12-26T05:40:46.180Z,1.67
2022-12-26T05:43:14.208Z,1.77
2022-12-26T05:45:43.234Z,1.80
2022-12-26T05:48:11.272Z,2.00
2022-12-26T05:50:39.256Z,2.00
2022-12-26T05:53:08.732Z,1.88
2022-12-26T05:55:36.746Z,2.17
2022-12-26T05:58:04.912Z,2.15
2022-12-26T06:00:33.200Z,1.70
2022-12-26T06:03:08.218Z,1.95
2022-12-26T06:05:36.370Z,2.15
2022-12-26T06:08:04.382Z,2.13
2022-12-26T06:10:33.976Z,2.00
2022-12-26T06:13:02.351Z,1.92
2022-12-26T06:15:30.418Z,1.80
2022-12-26T06:17:58.744Z,2.55
2022-12-26T06:20:26.810Z,1.75
2022-12-26T06:22:54.761Z,1.77
2022-12-26T06:25:22.754Z,1.80
2022-12-26T06:27:52.215Z,1.60
2022-12-26T06:30:20.235Z,1.88
2022-12-26T06:32:48.313Z,1.70
2022-12-26T06:35:16.550Z,1.85
2022-12-26T06:37:44.650Z,1.13
2022-12-26T06:40:12.863Z,1.98
2022-12-26T06:42:40.845Z,1.50
2022-12-26T06:45:11.715Z,1.70
2022-12-26T06:47:39.747Z,1.52
2022-12-26T06:50:08.549Z,2.00
2022-12-26T06:52:36.656Z,2.03
2022-12-26T06:55:05.136Z,2.13
2022-12-26T06:57:33.327Z,1.92
2022-12-26T07:00:01.510Z,1.90
2022-12-26T07:02:31.141Z,2.05
2022-12-26T07:04:59.165Z,10.07
2022-12-26T07:07:27.218Z,14.48
2022-12-26T07:09:55.256Z,7.93
2022-12-26T07:12:23.291Z,3.80
2022-12-26T07:14:52.061Z,4.15
2022-12-26T07:17:22.057Z,3.58
2022-12-26T07:19:52.329Z,4.60
2022-12-26T07:22:20.389Z,4.30
2022-12-26T07:24:48.443Z,4.53
2022-12-26T07:27:16.553Z,4.35
2022-12-26T07:29:44.566Z,4.18
2022-12-26T07:32:12.682Z,4.57
2022-12-26T07:34:40.668Z,4.55
2022-12-26T07:37:10.479Z,4.50
2022-12-26T07:39:38.683Z,4.30
2022-12-26T07:42:06.910Z,5.47
2022-12-26T07:44:35.010Z,4.80
2022-12-26T07:47:03.213Z,5.10
2022-12-26T07:49:31.209Z,4.82
2022-12-26T07:51:59.201Z,5.05
2022-12-26T07:54:30.149Z,5.03
2022-12-26T07:57:15.460Z,4.50
2022-12-26T07:59:46.271Z,4.97
2022-12-26T08:02:14.447Z,5.55
2022-12-26T08:04:42.476Z,5.03
2022-12-26T08:07:11.239Z,4.10
2022-12-26T08:09:43.149Z,4.72
2022-12-26T08:12:11.368Z,4.07
2022-12-26T08:14:39.381Z,3.25
2022-12-26T08:17:07.736Z,3.20
2022-12-26T08:19:35.962Z,3.38
2022-12-26T08:22:03.966Z,3.35
2022-12-26T08:24:41.486Z,3.70
2022-12-26T08:27:12.273Z,4.35
2022-12-26T08:29:40.210Z,3.47
2022-12-26T08:32:08.161Z,14.60
2022-12-26T08:34:37.242Z,3.92
2022-12-26T08:37:05.268Z,3.70
2022-12-26T08:39:33.404Z,3.13
2022-12-26T08:42:01.513Z,4.78
2022-12-26T08:44:30.917Z,3.95
2022-12-26T08:47:01.377Z,3.60
2022-12-26T08:49:32.312Z,4.18
2022-12-26T08:52:00.409Z,4.30
2022-12-26T08:54:29.783Z,4.13
2022-12-26T08:57:00.387Z,4.50
2022-12-26T09:00:08.391Z,4.18
2022-12-26T09:02:39.946Z,4.10
2022-12-26T09:05:12.387Z,4.25
2022-12-26T09:07:40.360Z,4.50
2022-12-26T09:10:10.333Z,4.55
2022-12-26T09:12:38.923Z,4.07
2022-12-26T09:19:40.079Z,4.57
2022-12-26T09:22:28.267Z,5.00
2022-12-26T09:25:00.014Z,4.13
2022-12-26T09:27:29.605Z,4.15
2022-12-26T09:29:57.523Z,3.50
2022-12-26T09:32:25.450Z,3.75
2022-12-26T09:34:54.829Z,5.20
2022-12-26T09:37:22.755Z,5.55
2022-12-26T09:39:50.770Z,5.55
2022-12-26T09:42:30.526Z,5.25
2022-12-26T09:45:05.645Z,10.25
2022-12-26T09:47:35.360Z,7.47
2022-12-26T09:50:12.375Z,9.38
2022-12-26T09:52:50.440Z,9.23
2022-12-26T09:55:30.778Z,7.53
2022-12-26T09:58:05.532Z,6.57
2022-12-26T10:00:39.797Z,4.50
2022-12-26T10:03:10.410Z,4.68
2022-12-26T10:05:45.359Z,18.48
2022-12-26T10:08:25.798Z,7.45
2022-12-26T10:11:02.317Z,6.30
2022-12-26T10:13:40.053Z,5.82
2022-12-26T10:16:13.804Z,7.45
2022-12-26T10:21:31.377Z,5.18
2022-12-26T10:24:03.894Z,7.28
2022-12-26T10:26:35.906Z,5.90
2022-12-26T10:29:11.941Z,9.05
2022-12-26T10:31:45.073Z,7.18
2022-12-26T10:34:19.628Z,5.55
2022-12-26T10:37:02.297Z,9.52
2022-12-26T10:39:35.428Z,6.13
2022-12-26T10:42:14.635Z,4.80
2022-12-26T10:44:54.414Z,5.93
2022-12-26T10:47:29.333Z,6.50
2022-12-26T10:49:59.994Z,3.88
2022-12-26T10:52:33.984Z,3.95
2022-12-26T10:55:31.305Z,3.55
2022-12-26T10:57:54.430Z,3.22
2022-12-26T11:00:24.457Z,5.20
2022-12-26T11:03:07.909Z,21.55
2022-12-26T11:08:39.125Z,4.38
2022-12-26T11:11:14.585Z,5.10
2022-12-26T11:13:48.708Z,2.22
2022-12-26T11:16:29.714Z,1.75
2022-12-26T11:19:00.418Z,3.15
2022-12-26T11:21:37.591Z,3.88
2022-12-26T11:25:06.944Z,2.80
2022-12-26T11:27:40.380Z,1.33
2022-12-26T11:30:31.622Z,1.88
2022-12-26T11:33:27.547Z,1.35
2022-12-26T11:36:24.458Z,1.90
2022-12-26T11:39:20.499Z,1.75
2022-12-26T11:42:34.452Z,1.95
2022-12-26T11:45:38.736Z,1.40
2022-12-26T11:51:10.419Z,1.33
2022-12-26T11:53:41.666Z,1.88
2022-12-26T11:56:28.028Z,2.60
2022-12-26T11:59:54.755Z,2.25
2022-12-26T12:02:28.239Z,2.05
2022-12-26T12:05:01.228Z,1.27
2022-12-26T12:07:45.534Z,1.27
2022-12-26T12:11:15.994Z,1.98
2022-12-26T12:14:31.977Z,1.52
2022-12-26T12:17:17.659Z,1.42
2022-12-26T12:20:25.271Z,1.90
2022-12-26T12:23:49.461Z,1.33
2022-12-26T12:27:04.730Z,2.22
2022-12-26T12:30:00.480Z,2.10
2022-12-26T12:32:34.679Z,1.27
2022-12-26T14:17:19.273Z,1.02
2022-12-26T14:28:03.470Z,1.63
2022-12-26T14:33:46.852Z,1.08
2022-12-26T14:36:32.411Z,2.08
2022-12-26T14:39:13.913Z,2.70
2022-12-26T14:42:50.969Z,2.97
2022-12-26T14:45:49.353Z,4.43
2022-12-26T15:17:50.989Z,1.42
2022-12-26T15:31:29.535Z,1.40
2022-12-26T15:34:07.664Z,1.33
2022-12-26T15:36:48.046Z,1.55
2022-12-26T15:39:27.454Z,1.17
2022-12-26T15:42:04.686Z,2.00
2022-12-26T15:44:44.247Z,1.83
2022-12-26T15:47:22.832Z,1.70
2022-12-26T15:50:04.471Z,1.92
2022-12-26T15:52:45.010Z,1.55
2022-12-26T15:55:47.582Z,1.60
2022-12-26T15:58:37.653Z,2.05
2022-12-26T16:01:07.366Z,1.80
2022-12-26T16:03:43.605Z,1.73
2022-12-26T16:06:33.764Z,2.03
2022-12-26T16:09:29.037Z,2.10
2022-12-26T16:11:59.803Z,1.88
2022-12-26T16:14:31.478Z,2.20
2022-12-26T16:17:20.610Z,2.00
2022-12-26T16:19:50.527Z,2.10
2022-12-26T16:26:18.795Z,1.27
2022-12-26T16:42:16.693Z,1.80
2022-12-26T16:44:47.746Z,2.17
2022-12-26T16:51:31.690Z,2.17
2022-12-26T16:58:52.006Z,2.75
2022-12-26T17:01:26.237Z,2.38
2022-12-26T17:04:09.332Z,1.63
2022-12-26T17:06:55.032Z,1.70
2022-12-26T17:09:33.429Z,2.05
2022-12-26T17:12:49.119Z,2.05
2022-12-26T17:19:24.392Z,2.10
2022-12-26T17:22:27.707Z,1.70
2022-12-26T17:25:26.447Z,2.40
2022-12-26T17:28:37.632Z,2.00
2022-12-26T17:31:23.005Z,1.70
2022-12-26T17:33:59.716Z,1.95
2022-12-26T17:37:17.294Z,1.88
2022-12-26T17:39:29.766Z,2.10
2022-12-26T17:42:12.189Z,1.73
2022-12-26T17:44:45.015Z,1.35
2022-12-26T17:47:23.453Z,2.05
2022-12-26T17:49:59.032Z,1.65
2022-12-26T17:52:45.261Z,1.60
2022-12-26T17:55:24.235Z,1.80
2022-12-26T17:57:55.496Z,1.48
2022-12-26T18:00:32.488Z,2.20
2022-12-26T18:03:08.738Z,1.70
2022-12-26T18:17:37.949Z,1.90
2022-12-26T18:20:08.085Z,2.10
2022-12-26T18:22:36.525Z,1.98
2022-12-26T18:25:12.251Z,1.83
2022-12-26T18:27:43.652Z,1.80
2022-12-26T18:30:29.680Z,1.83
2022-12-26T18:35:44.283Z,1.60
2022-12-26T18:38:16.821Z,1.90
2022-12-26T18:40:48.400Z,1.98
2022-12-26T18:43:25.996Z,1.52
2022-12-26T18:45:55.151Z,1.30
2022-12-26T18:48:26.411Z,1.70
2022-12-26T18:50:54.868Z,1.90
2022-12-26T18:53:28.865Z,2.22
2022-12-26T18:55:58.581Z,2.10
2022-12-26T18:58:26.871Z,2.35
2022-12-26T19:00:55.080Z,1.38
2022-12-26T19:03:23.208Z,1.05
2022-12-26T19:06:43.308Z,2.05
2022-12-26T19:09:13.712Z,1.65
2022-12-26T19:11:45.759Z,2.05
2022-12-26T19:17:20.602Z,2.50
2022-12-26T19:19:49.575Z,1.58
2022-12-26T19:22:17.573Z,1.58
2022-12-26T19:24:46.236Z,1.60
2022-12-26T19:27:15.612Z,2.17
2022-12-26T19:29:43.575Z,2.17
2022-12-26T19:32:11.578Z,1.83
2022-12-26T19:34:39.488Z,2.38
2022-12-26T19:37:07.443Z,2.28
2022-12-26T19:39:35.405Z,2.15
2022-12-26T19:42:03.401Z,2.50
2022-12-26T19:44:32.821Z,4.35
2022-12-26T19:47:11.180Z,2.50
2022-12-26T19:49:41.095Z,2.63
2022-12-26T19:52:09.331Z,1.85
2022-12-26T19:54:37.263Z,1.90
2022-12-26T19:57:05.814Z,2.60
2022-12-26T19:59:35.171Z,1.80
2022-12-26T20:02:03.269Z,1.30
2022-12-26T20:04:33.753Z,1.40
2022-12-26T20:07:02.930Z,1.35
2022-12-26T20:09:31.058Z,1.40
2022-12-26T20:11:59.190Z,1.75
2022-12-26T20:14:27.812Z,0.80
2022-12-26T20:17:07.850Z,0.90
2022-12-26T20:19:36.833Z,1.25
2022-12-26T20:22:05.873Z,1.40
2022-12-26T20:24:33.967Z,1.23
2022-12-26T20:27:02.293Z,1.27
2022-12-26T20:29:30.377Z,2.40
2022-12-26T20:32:00.443Z,2.67
2022-12-26T20:34:28.433Z,1.95
2022-12-26T20:36:56.406Z,1.40
2022-12-26T20:39:25.709Z,1.58
2022-12-26T20:41:53.714Z,1.65
2022-12-26T20:44:21.954Z,1.30
2022-12-26T20:46:49.875Z,2.83
2022-12-26T20:49:19.267Z,4.78
2022-12-26T20:51:47.264Z,1.50
2022-12-26T20:54:16.831Z,1.30
2022-12-26T20:56:45.979Z,1.85
2022-12-26T20:59:13.931Z,3.65
2022-12-26T21:01:42.219Z,1.40
2022-12-26T21:04:17.318Z,1.30
2022-12-26T21:06:56.108Z,1.70
2022-12-26T21:09:24.589Z,1.77
2022-12-26T21:11:53.160Z,1.45
2022-12-26T21:14:26.899Z,1.70
2022-12-26T21:16:59.103Z,1.35
2022-12-26T21:19:35.721Z,1.33
2022-12-26T21:22:06.427Z,1.55
2022-12-26T21:24:34.470Z,1.45
2022-12-26T21:27:03.132Z,1.70
2022-12-26T21:29:34.632Z,1.80
2022-12-26T21:32:04.345Z,1.58
2022-12-26T21:34:35.288Z,1.52
2022-12-26T21:37:25.520Z,1.77
2022-12-26T21:39:55.997Z,2.22
2022-12-26T21:42:24.065Z,2.20
2022-12-26T21:44:52.251Z,1.90
2022-12-26T21:47:20.243Z,1.95
2022-12-26T21:49:48.310Z,1.50
2022-12-26T21:52:23.690Z,2.35
2022-12-26T21:55:10.784Z,2.25
2022-12-26T21:57:39.578Z,2.05
2022-12-26T22:00:12.225Z,3.90
2022-12-26T22:03:00.869Z,2.97
2022-12-26T22:05:31.189Z,2.70
2022-12-26T22:08:02.973Z,1.85
2022-12-26T22:10:51.945Z,1.92
2022-12-26T22:17:05.356Z,1.85
2022-12-26T22:19:49.031Z,1.95
2022-12-26T22:22:17.443Z,2.20
2022-12-26T22:24:47.286Z,2.72
2022-12-26T22:27:21.456Z,2.05
2022-12-26T22:29:52.530Z,1.90
2022-12-26T22:32:24.548Z,2.05
2022-12-26T22:34:52.997Z,1.65
2022-12-26T22:37:29.790Z,1.55
2022-12-26T22:40:03.209Z,1.75
2022-12-26T22:42:43.115Z,1.75
2022-12-26T22:45:21.447Z,1.92
2022-12-26T22:47:55.216Z,2.33
2022-12-26T22:52:59.607Z,2.08
2022-12-26T22:55:35.567Z,1.65
2022-12-26T22:58:09.309Z,1.67
2022-12-26T23:00:44.771Z,1.67
2022-12-26T23:03:18.098Z,1.40
2022-12-26T23:05:47.126Z,1.35
2022-12-26T23:08:18.483Z,1.83
